Have a Safe July 4th! 

Flight Track Log - Related Links

Times and Time Zones

All times are in EDT time to prevent confusion due to time zone crossing. See the UAL33 flight status page for this flight to view local times or setup timezone preferences in your user account.

Time Position Orientation Groundspeed Altitude Reporting Facility
EDT Latitude Longitude Course Direction KTS MPH feet Rate Location/Type
Tue 04:39:58 AM 35.7830 140.3610 331° Northwest 175 201 1,500  Level FlightAware ADS-B
Tue 04:40:14 AM 35.7930 140.3550 334° Northwest 181 208 1,900 1,579 Climbing FlightAware ADS-B
Tue 04:40:36 AM 35.8080 140.3440 329° Northwest 186 214 2,500 1,765 Climbing FlightAware ADS-B
Tue 04:41:05 AM 35.8310 140.3270 329° Northwest 193 222 3,400 1,600 Climbing FlightAware ADS-B
Tue 04:41:21 AM 35.8430 140.3180 329° Northwest 207 238 3,700 1,167 Climbing FlightAware ADS-B
Tue 04:41:41 AM 35.8630 140.3040 330° Northwest 245 282 4,100 1,200 Climbing FlightAware ADS-B
Tue 04:42:01 AM 35.8870 140.2870 330° Northwest 267 307 4,500 1,463 Climbing FlightAware ADS-B
Tue 04:42:22 AM 35.9040 140.2740 328° Northwest 282 325 5,100 2,651 Climbing FlightAware ADS-B
Tue 04:42:44 AM 35.9400 140.2640 347° North 285 328 6,400 3,000 Climbing FlightAware ADS-B
Tue 04:42:52 AM 35.9500 140.2670 14° North 283 326 6,600 1,500 Climbing FlightAware ADS-B
Tue 04:43:00 AM 35.9600 140.2740 30° Northeast 284 327 6,800 1,500 Climbing FlightAware ADS-B
Tue 04:43:04 AM 35.9640 140.2770 31° Northeast 282 325 6,900 1,500 Climbing FlightAware ADS-B
Tue 04:43:12 AM 35.9710 140.2880 52° Northeast 278 320 7,100 1,714 Climbing FlightAware ADS-B
Tue 04:43:18 AM 35.9740 140.2960 65° Northeast 277 319 7,300 2,400 Climbing FlightAware ADS-B
Tue 04:43:27 AM 35.9770 140.3080 73° East 274 315 7,700 2,308 Climbing FlightAware ADS-B
Tue 04:43:31 AM 35.9770 140.3140 90° East 273 314 7,800 2,222 Climbing FlightAware ADS-B
Tue 04:43:54 AM 35.9690 140.3460 107° East 270 311 8,700 2,651 Climbing FlightAware ADS-B
Tue 04:44:14 AM 35.9560 140.3730 121° Southeast 271 312 9,700 2,143 Climbing FlightAware ADS-B
Tue 04:44:50 AM 35.9300 140.4200 124° Southeast 292 336 10,700 1,543 Climbing FlightAware ADS-B
Tue 04:45:24 AM 35.8980 140.4680 129° Southeast 321 369 11,500 1,853 Climbing FlightAware ADS-B
Tue 04:45:58 AM 35.8670 140.5170 128° Southeast 337 388 12,800 2,348 Climbing FlightAware ADS-B
Tue 04:46:33 AM 35.8330 140.5700 128° Southeast 344 396 14,200 1,760 Climbing FlightAware ADS-B
Tue 04:47:13 AM 35.7910 140.6360 128° Southeast 369 425 15,000 696 Climbing FlightAware ADS-B
Tue 04:47:42 AM 35.7590 140.6880 127° Southeast 368 423 15,000  Level FlightAware ADS-B
Tue 04:47:57 AM 35.7490 140.7150 115° Southeast 366 421 15,000  Level FlightAware ADS-B
Tue 04:48:12 AM 35.7450 140.7460 99° East 363 418 15,000  Level FlightAware ADS-B
Tue 04:48:47 AM 35.7490 140.8170 86° East 366 421 15,000 676 Level FlightAware ADS-B
Tue 04:49:23 AM 35.7560 140.8900 83° East 369 425 15,800 1,622 Climbing FlightAware ADS-B
Tue 04:50:01 AM 35.7640 140.9740 83° East 384 442 17,000 1,853 Climbing FlightAware ADS-B
Tue 04:50:31 AM 35.7710 141.0390 82° East 394 453 17,900 1,385 Climbing FlightAware ADS-B
Tue 04:51:06 AM 35.7790 141.1190 83° East 417 480 18,500 1,216 Climbing FlightAware ADS-B
Tue 04:51:45 AM 35.7880 141.2130 83° East 432 497 19,400 1,622 Climbing FlightAware ADS-B
Tue 04:52:20 AM 35.7960 141.3000 84° East 439 505 20,500 1,701 Climbing FlightAware ADS-B
Tue 04:52:52 AM 35.8030 141.3730 83° East 444 511 21,300 1,569 Climbing FlightAware ADS-B
Tue 04:53:25 AM 35.8110 141.4620 84° East 454 522 22,200 1,562 Climbing FlightAware ADS-B
Tue 04:54:05 AM 35.8290 141.5610 77° East 461 531 23,200 1,459 Climbing FlightAware ADS-B
Tue 04:54:39 AM 35.8560 141.6410 67° East 463 533 24,000 1,459 Climbing FlightAware ADS-B
Tue 04:55:19 AM 35.8930 141.7430 66° East 469 540 25,000 1,385 Climbing FlightAware ADS-B
Tue 04:55:57 AM 35.9250 141.8360 67° East 478 550 25,800 1,286 Climbing FlightAware ADS-B
Tue 04:56:29 AM 35.9510 141.9080 66° East 480 552 26,500 1,478 Climbing FlightAware ADS-B
Tue 04:57:06 AM 35.9860 142.0070 66° East 485 558 27,500 1,352 Climbing FlightAware ADS-B
Tue 04:57:40 AM 36.0160 142.0940 67° East 489 563 28,100 1,068 Climbing FlightAware ADS-B
Tue 04:58:19 AM 36.0520 142.1950 66° East 499 574 28,800 987 Climbing FlightAware ADS-B
Tue 04:58:59 AM 36.0890 142.3020 67° East 505 581 29,400 857 Climbing FlightAware ADS-B
Tue 04:59:29 AM 36.1190 142.3870 66° East 512 589 29,800 923 Climbing FlightAware ADS-B
Tue 05:00:04 AM 36.1490 142.4730 67° East 516 594 30,400 1,013 Climbing FlightAware ADS-B
Tue 05:00:46 AM 36.1860 142.5820 67° East 522 601 31,100 988 Climbing FlightAware ADS-B
Tue 05:01:29 AM 36.2320 142.7170 67° East 528 608 31,800 1,308 Climbing FlightAware ADS-B
Tue 05:02:04 AM 36.2650 142.8120 67° East 519 597 32,800 2,160 Climbing FlightAware ADS-B
Tue 05:02:44 AM 36.3010 142.9190 67° East 498 573 34,500 1,629 Climbing FlightAware ADS-B
Tue 05:03:14 AM 36.3250 142.9890 67° East 506 582 34,700 831 Climbing FlightAware ADS-B
Tue 05:03:49 AM 36.3610 143.0920 67° East 507 583 35,400 1,200 Climbing FlightAware ADS-B
Tue 05:04:24 AM 36.3920 143.1840 67° East 504 580 36,100 1,050 Climbing FlightAware ADS-B
Tue 05:05:09 AM 36.4320 143.3040 67° East 504 580 36,800 635 Climbing FlightAware ADS-B
Tue 05:05:49 AM 36.4690 143.4120 67° East 507 583 37,000 160 Climbing FlightAware ADS-B
Tue 05:06:24 AM 36.4990 143.5030 68° East 505 581 37,000  Level FlightAware ADS-B
Tue 05:07:08 AM 36.5320 143.5990 67° East 505 581 37,000  Level FlightAware ADS-B
Tue 05:07:49 AM 36.5750 143.7310 68° East 504 580 37,000  Level FlightAware ADS-B
Tue 05:08:24 AM 36.6070 143.8280 68° East 505 581 37,000  Level FlightAware ADS-B
Tue 05:08:59 AM 36.6350 143.9120 67° East 505 581 37,000  Level FlightAware ADS-B
Tue 05:09:34 AM 36.6700 144.0160 67° East 505 581 37,000 209 Level FlightAware ADS-B
Tue 05:10:25 AM 36.7120 144.1430 68° East 507 583 37,300 207 Climbing FlightAware ADS-B
Tue 05:11:01 AM 36.7400 144.2250 67° East 507 583 37,300  Level FlightAware ADS-B
Tue 05:11:38 AM 36.7690 144.3100 67° East 507 583 37,300 1,143 Level FlightAware ADS-B
Tue 05:12:25 AM 36.8190 144.4740 69° East 509 586 38,900 1,325 Climbing FlightAware ADS-B
Tue 05:12:55 AM 36.8450 144.5530 68° East 509 586 39,000 92 Climbing FlightAware ADS-B
Tue 05:13:30 AM 36.8740 144.6450 68° East 509 586 39,000  Level FlightAware ADS-B
Tue 05:14:14 AM 36.9160 144.7750 68° East 507 583 39,000  Level FlightAware ADS-B
Tue 05:14:58 AM 36.9480 144.8780 69° East 507 583 39,000  Level FlightAware ADS-B
Tue 05:15:38 AM 36.9800 144.9790 68° East 507 583 39,000  Level FlightAware ADS-B
Tue 05:16:14 AM 37.0060 145.0630 69° East 507 583 39,000  Level FlightAware ADS-B
Tue 05:16:50 AM 37.0320 145.1470 69° East 507 583 39,000  Level FlightAware ADS-B
Tue 05:17:26 AM 37.0570 145.2310 70° East 507 583 39,000  Level FlightAware ADS-B
Tue 05:18:02 AM 37.1090 145.3840 67° East 505 581 39,000  Level FlightAware ADS-B
Tue 05:18:38 AM 37.1340 145.4680 70° East 505 581 39,000  Level FlightAware ADS-B
Tue 05:19:14 AM 37.1600 145.5520 69° East 505 581 39,000  Level FlightAware ADS-B
Tue 05:19:48 AM 37.1840 145.6310 69° East 505 581 39,000  Level FlightAware ADS-B
Tue 05:20:24 AM 37.2100 145.7150 69° East 505 581 39,000  Level FlightAware ADS-B
Tue 05:21:00 AM 37.2350 145.7980 69° East 505 581 39,000  Level FlightAware ADS-B
Tue 05:21:36 AM 37.2610 145.8820 69° East 505 581 39,000  Level FlightAware ADS-B
Tue 05:22:12 AM 37.2870 145.9660 69° East 505 581 39,000  Level FlightAware ADS-B
Tue 05:22:49 AM 37.3130 146.0520 69° East 505 581 39,000  Level FlightAware ADS-B
Tue 05:23:18 AM 37.4620 146.1980 38° Northeast 39,000  Level FlightAware ADS-B
Tue 05:23:56 AM 37.5050 146.2860 58° Northeast 493 567 39,000  Level FlightAware ADS-B
Tue 05:24:37 AM 37.5500 146.3780 58° Northeast 493 567 39,000  Level FlightAware ADS-B
Tue 05:25:13 AM 37.5870 146.4520 58° Northeast 493 567 39,000  Level FlightAware ADS-B
Tue 05:25:50 AM 37.6250 146.5290 58° Northeast 493 567 39,000  Level FlightAware ADS-B
Tue 05:26:26 AM 37.6620 146.6040 58° Northeast 493 567 39,000  Level FlightAware ADS-B
Tue 05:27:03 AM 37.7000 146.6810 58° Northeast 493 567 39,000  Level FlightAware ADS-B
Tue 05:27:39 AM 37.7370 146.7560 58° Northeast 493 567 39,000  Level FlightAware ADS-B
Tue 05:28:16 AM 37.7750 146.8330 58° Northeast 493 567 39,000  Level FlightAware ADS-B
Tue 05:28:52 AM 37.8120 146.9070 58° Northeast 493 567 39,000  Level FlightAware ADS-B
Tue 05:29:28 AM 37.8490 146.9820 58° Northeast 493 567 39,000  Level FlightAware ADS-B
Tue 05:30:04 AM 37.8860 147.0570 58° Northeast 493 567 39,000  Level FlightAware ADS-B
Tue 05:30:40 AM 37.9230 147.1320 58° Northeast 493 567 39,000  Level FlightAware ADS-B
Tue 05:31:16 AM 37.9600 147.2070 58° Northeast 493 567 39,000  Level FlightAware ADS-B
Tue 05:31:52 AM 37.9970 147.2830 58° Northeast 493 567 39,000  Level FlightAware ADS-B
Tue 05:32:28 AM 38.0340 147.3580 58° Northeast 493 567 39,000  Level FlightAware ADS-B
Tue 05:33:04 AM 38.0710 147.4330 58° Northeast 493 567 39,000  Level FlightAware ADS-B
Tue 05:33:40 AM 38.1080 147.5080 58° Northeast 493 567 39,000 Level FlightAware ADS-B
Tue 05:36:00 AM 38.2726 147.8740 60° Northeast  Level Estimated
Tue 05:37:00 AM 38.3428 148.0313 60° Northeast  Level Estimated
Tue 05:38:00 AM 38.4128 148.1890 60° Northeast  Level Estimated
Tue 05:39:00 AM 38.4826 148.3469 61° Northeast  Level Estimated
Tue 05:40:00 AM 38.5522 148.5052 61° Northeast  Level Estimated
Tue 05:41:00 AM 38.6216 148.6638 61° Northeast  Level Estimated
Tue 05:42:00 AM 38.6907 148.8227 61° Northeast  Level Estimated
Tue 05:43:00 AM 38.7597 148.9819 61° Northeast  Level Estimated
Tue 05:44:00 AM 38.8284 149.1413 61° Northeast  Level Estimated
Tue 05:45:00 AM 38.8969 149.3011 61° Northeast  Level Estimated
Tue 05:46:00 AM 38.9651 149.4612 61° Northeast  Level Estimated
Tue 05:47:00 AM 39.0332 149.6217 61° Northeast  Level Estimated
Tue 05:48:00 AM 39.1011 149.7824 61° Northeast  Level Estimated
Tue 05:49:00 AM 39.1687 149.9434 62° Northeast  Level Estimated
Tue 05:50:00 AM 39.2361 150.1048 62° Northeast  Level Estimated
Tue 05:51:00 AM 39.3032 150.2664 62° Northeast  Level Estimated
Tue 05:52:00 AM 39.3702 150.4284 62° Northeast  Level Estimated
Tue 05:53:00 AM 39.4369 150.5907 62° Northeast  Level Estimated
Tue 05:54:00 AM 39.5034 150.7533 62° Northeast  Level Estimated
Tue 05:55:00 AM 39.5697 150.9162 62° Northeast  Level Estimated
Tue 05:56:00 AM 39.6357 151.0794 62° Northeast  Level Estimated
Tue 05:57:00 AM 39.7015 151.2429 62° Northeast  Level Estimated
Tue 05:58:00 AM 39.7671 151.4067 62° Northeast  Level Estimated
Tue 05:59:00 AM 39.8325 151.5709 63° Northeast  Level Estimated
Tue 06:00:00 AM 39.8976 151.7353 63° Northeast  Level Estimated
Tue 06:01:00 AM 39.9625 151.9001 63° Northeast  Level Estimated
Tue 06:02:00 AM 40.0272 152.0652 63° Northeast  Level Estimated
Tue 06:03:00 AM 40.0916 152.2305 63° Northeast  Level Estimated
Tue 06:04:00 AM 40.1558 152.3963 63° Northeast  Level Estimated
Tue 06:05:00 AM 40.2197 152.5623 63° Northeast  Level Estimated
Tue 06:06:00 AM 40.2834 152.7286 63° Northeast  Level Estimated
Tue 06:07:00 AM 40.3469 152.8952 63° Northeast  Level Estimated
Tue 06:08:00 AM 40.4101 153.0622 64° Northeast  Level Estimated
Tue 06:09:00 AM 40.4731 153.2295 64° Northeast  Level Estimated
Tue 06:10:00 AM 40.5359 153.3971 64° Northeast  Level Estimated
Tue 06:11:00 AM 40.5984 153.5650 64° Northeast  Level Estimated
Tue 06:12:00 AM 40.6607 153.7332 64° Northeast  Level Estimated
Tue 06:13:00 AM 40.7227 153.9017 64° Northeast  Level Estimated
Tue 06:14:00 AM 40.7845 154.0705 64° Northeast  Level Estimated
Tue 06:15:00 AM 40.8460 154.2397 64° Northeast  Level Estimated
Tue 06:16:00 AM 40.9073 154.4092 64° Northeast  Level Estimated
Tue 06:17:00 AM 40.9683 154.5789 64° Northeast  Level Estimated
Tue 06:18:00 AM 41.0291 154.7490 65° Northeast  Level Estimated
Tue 06:19:00 AM 41.0896 154.9194 65° Northeast  Level Estimated
Tue 06:20:00 AM 41.1499 155.0902 65° Northeast  Level Estimated
Tue 06:21:00 AM 41.2099 155.2612 65° Northeast  Level Estimated
Tue 06:22:00 AM 41.2697 155.4326 65° Northeast  Level Estimated
Tue 06:23:00 AM 41.3292 155.6042 65° Northeast  Level Estimated
Tue 06:24:00 AM 41.3885 155.7762 65° Northeast  Level Estimated
Tue 06:25:00 AM 41.4475 155.9485 65° Northeast  Level Estimated
Tue 06:26:00 AM 41.5062 156.1211 66° East  Level Estimated
Tue 06:27:00 AM 41.5647 156.2940 66° East  Level Estimated
Tue 06:28:00 AM 41.6230 156.4672 66° East  Level Estimated
Tue 06:29:00 AM 41.6809 156.6408 66° East  Level Estimated
Tue 06:30:00 AM 41.7387 156.8146 66° East  Level Estimated
Tue 06:31:00 AM 41.7961 156.9888 66° East  Level Estimated
Tue 06:32:00 AM 41.8533 157.1633 66° East  Level Estimated
Tue 06:33:00 AM 41.9102 157.3380 66° East  Level Estimated
Tue 06:34:00 AM 41.9669 157.5131 66° East  Level Estimated
Tue 06:35:00 AM 42.0233 157.6886 67° East  Level Estimated
Tue 06:36:00 AM 42.0794 157.8643 67° East  Level Estimated
Tue 06:37:00 AM 42.1352 158.0403 67° East  Level Estimated
Tue 06:38:00 AM 42.1908 158.2166 67° East  Level Estimated
Tue 06:39:00 AM 42.2461 158.3933 67° East  Level Estimated
Tue 06:40:00 AM 42.3012 158.5703 67° East  Level Estimated
Tue 06:41:00 AM 42.3556 158.7466 67° East  Level Estimated
Tue 06:42:00 AM 42.4099 158.9232 67° East  Level Estimated
Tue 06:43:00 AM 42.4638 159.1001 67° East  Level Estimated
Tue 06:44:00 AM 42.5174 159.2773 68° East  Level Estimated
Tue 06:45:00 AM 42.5708 159.4549 68° East  Level Estimated
Tue 06:46:00 AM 42.6239 159.6327 68° East  Level Estimated
Tue 06:47:00 AM 42.6768 159.8109 68° East  Level Estimated
Tue 06:48:00 AM 42.7293 159.9893 68° East  Level Estimated
Tue 06:49:00 AM 42.7816 160.1681 68° East  Level Estimated
Tue 06:50:00 AM 42.8336 160.3471 68° East  Level Estimated
Tue 06:51:00 AM 42.8854 160.5265 68° East  Level Estimated
Tue 06:52:00 AM 42.9368 160.7061 69° East  Level Estimated
Tue 06:53:00 AM 42.9880 160.8861 69° East  Level Estimated
Tue 06:54:00 AM 43.0388 161.0663 69° East  Level Estimated
Tue 06:55:00 AM 43.0895 161.2469 69° East  Level Estimated
Tue 06:56:00 AM 43.1398 161.4277 69° East  Level Estimated
Tue 06:57:00 AM 43.1898 161.6089 69° East  Level Estimated
Tue 06:58:00 AM 43.2395 161.7903 69° East  Level Estimated
Tue 06:59:00 AM 43.2890 161.9720 69° East  Level Estimated
Tue 07:00:00 AM 43.3382 162.1541 70° East  Level Estimated
Tue 07:01:00 AM 43.3870 162.3364 70° East  Level Estimated
Tue 07:02:00 AM 43.4356 162.5190 70° East  Level Estimated
Tue 07:03:00 AM 43.4839 162.7019 70° East  Level Estimated
Tue 07:04:00 AM 43.5319 162.8851 70° East  Level Estimated
Tue 07:05:00 AM 43.5797 163.0686 70° East  Level Estimated
Tue 07:06:00 AM 43.6271 163.2524 70° East  Level Estimated
Tue 07:07:00 AM 43.6742 163.4364 70° East  Level Estimated
Tue 07:08:00 AM 43.7210 163.6208 71° East  Level Estimated
Tue 07:09:00 AM 43.7676 163.8055 71° East  Level Estimated
Tue 07:10:00 AM 43.8138 163.9904 71° East  Level Estimated
Tue 07:11:00 AM 43.8597 164.1756 71° East  Level Estimated
Tue 07:12:00 AM 43.9053 164.3611 71° East  Level Estimated
Tue 07:13:00 AM 43.9507 164.5469 71° East  Level Estimated
Tue 07:14:00 AM 43.9957 164.7330 71° East  Level Estimated
Tue 07:15:00 AM 44.0404 164.9193 71° East  Level Estimated
Tue 07:16:00 AM 44.0849 165.1060 72° East  Level Estimated
Tue 07:17:00 AM 44.1290 165.2929 72° East  Level Estimated
Tue 07:18:00 AM 44.1728 165.4801 72° East  Level Estimated
Tue 07:19:00 AM 44.2163 165.6675 72° East  Level Estimated
Tue 07:20:00 AM 44.2595 165.8553 72° East  Level Estimated
Tue 07:21:00 AM 44.3024 166.0433 72° East  Level Estimated
Tue 07:22:00 AM 44.3450 166.2316 72° East  Level Estimated
Tue 07:23:00 AM 44.3873 166.4201 73° East  Level Estimated
Tue 07:24:00 AM 44.4293 166.6090 73° East  Level Estimated
Tue 07:25:00 AM 44.4709 166.7981 73° East  Level Estimated
Tue 07:26:00 AM 44.5123 166.9875 73° East  Level Estimated
Tue 07:27:00 AM 44.5533 167.1771 73° East  Level Estimated
Tue 07:28:00 AM 44.5940 167.3670 73° East  Level Estimated
Tue 07:29:00 AM 44.6344 167.5572 73° East  Level Estimated
Tue 07:30:00 AM 44.6745 167.7477 73° East  Level Estimated
Tue 07:31:00 AM 44.7143 167.9384 74° East  Level Estimated
Tue 07:32:00 AM 44.7537 168.1293 74° East  Level Estimated
Tue 07:33:00 AM 44.7928 168.3206 74° East  Level Estimated
Tue 07:34:00 AM 44.8316 168.5120 74° East  Level Estimated
Tue 07:35:00 AM 44.8701 168.7038 74° East  Level Estimated
Tue 07:36:00 AM 44.9083 168.8958 74° East  Level Estimated
Tue 07:37:00 AM 44.9462 169.0880 74° East  Level Estimated
Tue 07:38:00 AM 44.9837 169.2805 75° East  Level Estimated
Tue 07:38:39 AM 43.9500 169.2500 84° East 512 589 40,000  Level Oakland Oceanic (ODAPS)
Tue 07:39:00 AM 45.0209 169.4733 75° East  Level Estimated
Tue 07:40:00 AM 45.0578 169.6663 75° East  Level Estimated
Tue 07:41:00 AM 45.0943 169.8595 75° East  Level Estimated
Tue 07:42:00 AM 45.1305 170.0530 75° East  Level Estimated
Tue 07:43:00 AM 45.1664 170.2468 75° East  Level Estimated
Tue 07:43:13 AM 44.0333 170.2000 79° East 538 619 40,000  Level Oakland Oceanic (ODAPS)
Tue 07:44:00 AM 44.0589 170.4090 79° East 512 589 40,000  Level FlightAware Transoceanic
Tue 07:45:00 AM 44.0878 170.6138 79° East 512 589 40,000  Level FlightAware Transoceanic
Tue 07:46:00 AM 44.1163 170.8188 79° East 512 589 40,000  Level FlightAware Transoceanic
Tue 07:47:00 AM 44.1445 171.0240 79° East 512 589 40,000  Level FlightAware Transoceanic
Tue 07:48:00 AM 44.1723 171.2294 79° East 512 589 40,000  Level FlightAware Transoceanic
Tue 07:49:00 AM 44.2030 171.4312 80° East 538 619 40,000  Level FlightAware Transoceanic
Tue 07:50:00 AM 44.2300 171.6370 80° East 538 619 40,000  Level FlightAware Transoceanic
Tue 07:51:00 AM 44.2567 171.8431 80° East 538 619 40,000  Level FlightAware Transoceanic
Tue 07:52:00 AM 44.2829 172.0493 80° East 538 619 40,000  Level FlightAware Transoceanic
Tue 07:52:16 AM 44.2667 171.9500 80° East 526 605 40,000  Level Oakland Oceanic (ODAPS)
Tue 07:53:00 AM 44.3088 172.2558 80° East 538 619 40,000  Level FlightAware Transoceanic
Tue 07:54:00 AM 44.3343 172.4624 80° East 538 619 40,000  Level FlightAware Transoceanic
Tue 07:55:00 AM 44.3594 172.6691 80° East 538 619 40,000  Level FlightAware Transoceanic
Tue 07:56:00 AM 44.3842 172.8761 81° East 538 619 40,000  Level FlightAware Transoceanic
Tue 07:57:00 AM 44.4086 173.0833 81° East 538 619 40,000  Level FlightAware Transoceanic
Tue 07:58:00 AM 44.4161 173.1741 81° East 526 605 40,000  Level FlightAware Transoceanic
Tue 07:59:00 AM 44.4397 173.3787 81° East 526 605 40,000  Level FlightAware Transoceanic
Tue 08:00:00 AM 44.4630 173.5835 81° East 526 605 40,000  Level FlightAware Transoceanic
Tue 08:01:00 AM 44.4859 173.7885 81° East 526 605 40,000  Level FlightAware Transoceanic
Tue 08:02:00 AM 44.5084 173.9935 81° East 526 605 40,000  Level FlightAware Transoceanic
Tue 08:03:00 AM 44.5306 174.1988 81° East 526 605 40,000  Level FlightAware Transoceanic
Tue 08:04:00 AM 44.5524 174.4042 82° East 526 605 40,000  Level FlightAware Transoceanic
Tue 08:05:00 AM 44.5738 174.6098 82° East 526 605 40,000  Level FlightAware Transoceanic
Tue 08:06:00 AM 44.5949 174.8155 82° East 526 605 40,000  Level FlightAware Transoceanic
Tue 08:06:11 AM 44.5833 174.7333 82° East 535 616 40,000  Level Oakland Oceanic (ODAPS)
Tue 08:07:00 AM 44.6156 175.0214 82° East 526 605 40,000  Level FlightAware Transoceanic
Tue 08:08:00 AM 44.6359 175.2274 82° East 526 605 40,000  Level FlightAware Transoceanic
Tue 08:09:00 AM 44.6558 175.4335 82° East 526 605 40,000  Level FlightAware Transoceanic
Tue 08:10:00 AM 44.6754 175.6398 82° East 526 605 40,000  Level FlightAware Transoceanic
Tue 08:11:00 AM 44.6946 175.8463 83° East 526 605 40,000  Level FlightAware Transoceanic
Tue 08:12:00 AM 44.7054 175.9901 83° East 535 616 40,000  Level FlightAware Transoceanic
Tue 08:13:00 AM 44.7243 176.2000 83° East 535 616 40,000  Level FlightAware Transoceanic
Tue 08:14:00 AM 44.7430 176.4101 83° East 535 616 40,000  Level FlightAware Transoceanic
Tue 08:15:00 AM 44.7612 176.6203 83° East 535 616 40,000  Level FlightAware Transoceanic
Tue 08:16:00 AM 44.7790 176.8307 83° East 535 616 40,000  Level FlightAware Transoceanic
Tue 08:17:00 AM 44.7965 177.0412 83° East 535 616 40,000  Level FlightAware Transoceanic
Tue 08:18:00 AM 44.8135 177.2518 84° East 535 616 40,000  Level FlightAware Transoceanic
Tue 08:19:00 AM 44.8302 177.4625 84° East 535 616 40,000  Level FlightAware Transoceanic
Tue 08:20:00 AM 44.8465 177.6734 84° East 535 616 40,000  Level FlightAware Transoceanic
Tue 08:20:00 AM 44.8500 177.6167 84° East 540 621 40,000  Level Oakland Oceanic (ODAPS)
Tue 08:21:00 AM 44.8624 177.8844 84° East 535 616 40,000  Level FlightAware Transoceanic
Tue 08:22:00 AM 44.8779 178.0955 84° East 535 616 40,000  Level FlightAware Transoceanic
Tue 08:23:00 AM 44.8931 178.3067 84° East 535 616 40,000  Level FlightAware Transoceanic
Tue 08:24:00 AM 44.9078 178.5180 84° East 535 616 40,000  Level FlightAware Transoceanic
Tue 08:25:00 AM 44.9221 178.7294 85° East 535 616 40,000  Level FlightAware Transoceanic
Tue 08:26:00 AM 44.9380 178.9151 85° East 540 621 40,000  Level FlightAware Transoceanic
Tue 08:27:00 AM 44.9512 179.1319 85° East 540 621 40,000  Level FlightAware Transoceanic
Tue 08:28:00 AM 44.9640 179.3488 85° East 540 621 40,000  Level FlightAware Transoceanic
Tue 08:29:00 AM 44.9764 179.5658 85° East 540 621 40,000  Level FlightAware Transoceanic
Tue 08:30:00 AM 44.9884 179.7828 86° East 540 621 40,000  Level FlightAware Transoceanic
Tue 08:31:00 AM 45.0000 -180.0000 63° Northeast 540 621 40,000  Level FlightAware Transoceanic
Tue 08:31:15 AM 45.0000 180.0000 63° Northeast 554 638 40,000  Level Oakland Oceanic (ODAPS)
Tue 08:32:00 AM 45.0711 -179.8031 63° Northeast 540 621 40,000  Level FlightAware Transoceanic
Tue 08:33:00 AM 45.1418 -179.6056 63° Northeast 540 621 40,000  Level FlightAware Transoceanic
Tue 08:33:53 AM 45.1833 -179.4833 63° Northeast 561 646 40,000  Level Oakland Oceanic (ODAPS)
Tue 08:34:00 AM 45.2122 -179.4077 63° Northeast 540 621 40,000  Level FlightAware Transoceanic
Tue 08:35:00 AM 45.2823 -179.2093 63° Northeast 540 621 40,000  Level FlightAware Transoceanic
Tue 08:36:00 AM 45.3520 -179.0103 64° Northeast 540 621 40,000  Level FlightAware Transoceanic
Tue 08:37:00 AM 45.4129 -178.8354 64° Northeast 554 638 40,000  Level FlightAware Transoceanic
Tue 08:38:00 AM 45.4806 -178.6396 64° Northeast 554 638 40,000  Level FlightAware Transoceanic
Tue 08:39:00 AM 45.5479 -178.4434 64° Northeast 554 638 40,000  Level FlightAware Transoceanic
Tue 08:40:00 AM 45.6031 -178.2764 64° Northeast 561 646 40,000  Level FlightAware Transoceanic
Tue 08:41:00 AM 45.6718 -178.0735 64° Northeast 561 646 40,000  Level FlightAware Transoceanic
Tue 08:42:00 AM 45.7401 -177.8701 64° Northeast 561 646 40,000  Level FlightAware Transoceanic
Tue 08:43:00 AM 45.8081 -177.6662 65° Northeast 561 646 40,000  Level FlightAware Transoceanic
Tue 08:44:00 AM 45.8757 -177.4618 65° Northeast 561 646 40,000  Level FlightAware Transoceanic
Tue 08:45:00 AM 45.9430 -177.2569 65° Northeast 561 646 40,000  Level FlightAware Transoceanic
Tue 08:46:00 AM 46.0099 -177.0516 65° Northeast 561 646 40,000  Level FlightAware Transoceanic
Tue 08:47:00 AM 46.0764 -176.8457 65° Northeast 561 646 40,000  Level FlightAware Transoceanic
Tue 08:47:44 AM 46.1167 -176.7167 65° Northeast 563 648 40,000  Level Oakland Oceanic (ODAPS)
Tue 08:48:00 AM 46.1426 -176.6393 65° Northeast 561 646 40,000  Level FlightAware Transoceanic
Tue 08:49:00 AM 46.2083 -176.4324 65° Northeast 561 646 40,000  Level FlightAware Transoceanic
Tue 08:50:00 AM 46.2738 -176.2251 66° East 561 646 40,000  Level FlightAware Transoceanic
Tue 08:51:00 AM 46.3388 -176.0172 66° East 561 646 40,000  Level FlightAware Transoceanic
Tue 08:52:00 AM 46.4034 -175.8089 66° East 561 646 40,000  Level FlightAware Transoceanic
Tue 08:53:00 AM 46.4466 -175.6657 66° East 563 648 40,000  Level FlightAware Transoceanic
Tue 08:54:00 AM 46.5114 -175.4540 66° East 563 648 40,000  Level FlightAware Transoceanic
Tue 08:55:00 AM 46.5758 -175.2418 66° East 563 648 40,000  Level FlightAware Transoceanic
Tue 08:56:00 AM 46.6399 -175.0291 66° East 563 648 40,000  Level FlightAware Transoceanic
Tue 08:57:00 AM 46.7035 -174.8158 67° East 563 648 40,000  Level FlightAware Transoceanic
Tue 08:58:00 AM 46.7668 -174.6021 67° East 563 648 40,000  Level FlightAware Transoceanic
Tue 08:59:00 AM 46.8296 -174.3879 67° East 563 648 40,000  Level FlightAware Transoceanic
Tue 09:00:00 AM 46.8921 -174.1732 67° East 563 648 40,000  Level FlightAware Transoceanic
Tue 09:01:00 AM 46.9541 -173.9579 67° East 563 648 40,000  Level FlightAware Transoceanic
Tue 09:01:37 AM 46.9833 -173.8667 67° East 564 649 40,000  Level Oakland Oceanic (ODAPS)
Tue 09:02:00 AM 47.0157 -173.7422 67° East 563 648 40,000  Level FlightAware Transoceanic
Tue 09:03:00 AM 47.0770 -173.5260 68° East 563 648 40,000  Level FlightAware Transoceanic
Tue 09:04:00 AM 47.1378 -173.3093 68° East 563 648 40,000  Level FlightAware Transoceanic
Tue 09:05:00 AM 47.1982 -173.0921 68° East 563 648 40,000  Level FlightAware Transoceanic
Tue 09:06:00 AM 47.2582 -172.8744 68° East 563 648 40,000  Level FlightAware Transoceanic
Tue 09:07:00 AM 47.3366 -172.5945 68° East 564 649 40,000  Level FlightAware Transoceanic
Tue 09:08:00 AM 47.3941 -172.3808 68° East 564 649 40,000  Level FlightAware Transoceanic
Tue 09:09:00 AM 47.4512 -172.1667 69° East 564 649 40,000  Level FlightAware Transoceanic
Tue 09:10:00 AM 47.5079 -171.9521 69° East 564 649 40,000  Level FlightAware Transoceanic
Tue 09:11:00 AM 47.5642 -171.7370 69° East 564 649 40,000  Level FlightAware Transoceanic
Tue 09:12:00 AM 47.6201 -171.5215 69° East 564 649 40,000  Level FlightAware Transoceanic
Tue 09:13:00 AM 47.6756 -171.3055 69° East 564 649 40,000  Level FlightAware Transoceanic
Tue 09:14:00 AM 47.7307 -171.0890 69° East 564 649 40,000  Level FlightAware Transoceanic
Tue 09:15:00 AM 47.7854 -170.8721 70° East 564 649 40,000  Level FlightAware Transoceanic
Tue 09:15:28 AM 47.7833 -170.9167 70° East 562 647 40,000  Level Oakland Oceanic (ODAPS)
Tue 09:16:00 AM 47.8397 -170.6548 70° East 564 649 40,000  Level FlightAware Transoceanic
Tue 09:17:00 AM 47.8935 -170.4370 70° East 564 649 40,000  Level FlightAware Transoceanic
Tue 09:18:00 AM 47.9470 -170.2187 70° East 564 649 40,000  Level FlightAware Transoceanic
Tue 09:19:00 AM 48.0000 -170.0000 78° East 564 649 40,000  Level FlightAware Transoceanic
Tue 09:19:43 AM 48.0000 -170.0000 78° East 545 627 40,000  Level Oakland Oceanic (ODAPS)
Tue 09:20:00 AM 48.0315 -169.7826 78° East 564 649 40,000  Level FlightAware Transoceanic
Tue 09:21:00 AM 48.0626 -169.5649 78° East 562 647 40,000  Level FlightAware Transoceanic
Tue 09:22:00 AM 48.0933 -169.3470 78° East 562 647 40,000  Level FlightAware Transoceanic
Tue 09:23:00 AM 48.1236 -169.1288 78° East 562 647 40,000  Level FlightAware Transoceanic
Tue 09:24:00 AM 48.1535 -168.9104 79° East 562 647 40,000  Level FlightAware Transoceanic
Tue 09:25:00 AM 48.1829 -168.6917 79° East 562 647 40,000  Level FlightAware Transoceanic
Tue 09:26:00 AM 48.1869 -168.6618 79° East 545 627 40,000  Level FlightAware Transoceanic
Tue 09:27:00 AM 48.2166 -168.4379 79° East 545 627 40,000  Level FlightAware Transoceanic
Tue 09:28:00 AM 48.2458 -168.2137 79° East 545 627 40,000  Level FlightAware Transoceanic
Tue 09:29:00 AM 48.2745 -167.9892 79° East 545 627 40,000  Level FlightAware Transoceanic
Tue 09:29:19 AM 48.3000 -167.8500 79° East 540 621 40,000  Level Oakland Oceanic (ODAPS)
Tue 09:30:00 AM 48.3029 -167.7645 79° East 545 627 40,000  Level FlightAware Transoceanic
Tue 09:31:00 AM 48.3307 -167.5395 80° East 545 627 40,000  Level FlightAware Transoceanic
Tue 09:32:00 AM 48.3582 -167.3143 80° East 545 627 40,000  Level FlightAware Transoceanic
Tue 09:33:00 AM 48.3852 -167.0888 80° East 545 627 40,000  Level FlightAware Transoceanic
Tue 09:34:00 AM 48.4118 -166.8631 80° East 545 627 40,000  Level FlightAware Transoceanic
Tue 09:35:00 AM 48.4577 -166.5210 80° East 540 621 40,000  Level FlightAware Transoceanic
Tue 09:36:00 AM 48.4825 -166.2987 81° East 540 621 40,000  Level FlightAware Transoceanic
Tue 09:37:00 AM 48.5068 -166.0762 81° East 540 621 40,000  Level FlightAware Transoceanic
Tue 09:38:00 AM 48.5308 -165.8535 81° East 540 621 40,000  Level FlightAware Transoceanic
Tue 09:39:00 AM 48.5542 -165.6305 81° East 540 621 40,000  Level FlightAware Transoceanic
Tue 09:40:00 AM 48.5773 -165.4074 81° East 540 621 40,000  Level FlightAware Transoceanic
Tue 09:41:00 AM 48.5999 -165.1841 81° East 540 621 40,000  Level FlightAware Transoceanic
Tue 09:42:00 AM 48.6222 -164.9605 82° East 540 621 40,000  Level FlightAware Transoceanic
Tue 09:43:00 AM 48.6439 -164.7368 82° East 540 621 40,000  Level FlightAware Transoceanic
Tue 09:43:12 AM 48.6333 -164.8000 82° East 529 609 40,000  Level Oakland Oceanic (ODAPS)
Tue 09:44:00 AM 48.6653 -164.5129 82° East 540 621 40,000  Level FlightAware Transoceanic
Tue 09:45:00 AM 48.6862 -164.2888 82° East 540 621 40,000  Level FlightAware Transoceanic
Tue 09:46:00 AM 48.7066 -164.0645 82° East 540 621 40,000  Level FlightAware Transoceanic
Tue 09:47:00 AM 48.7267 -163.8400 82° East 540 621 40,000  Level FlightAware Transoceanic
Tue 09:48:00 AM 48.7463 -163.6154 83° East 540 621 40,000  Level FlightAware Transoceanic
Tue 09:49:00 AM 48.7531 -163.4982 83° East 529 609 40,000  Level FlightAware Transoceanic
Tue 09:50:00 AM 48.7716 -163.2806 83° East 529 609 40,000  Level FlightAware Transoceanic
Tue 09:51:00 AM 48.7897 -163.0629 83° East 529 609 40,000  Level FlightAware Transoceanic
Tue 09:52:00 AM 48.8074 -162.8450 83° East 529 609 40,000  Level FlightAware Transoceanic
Tue 09:53:00 AM 48.8247 -162.6270 83° East 529 609 40,000  Level FlightAware Transoceanic
Tue 09:54:00 AM 48.8416 -162.4088 83° East 529 609 40,000  Level FlightAware Transoceanic
Tue 09:55:00 AM 48.8581 -162.1905 84° East 529 609 40,000  Level FlightAware Transoceanic
Tue 09:56:00 AM 48.8741 -161.9720 84° East 529 609 40,000  Level FlightAware Transoceanic
Tue 09:57:00 AM 48.8898 -161.7534 84° East 529 609 40,000  Level FlightAware Transoceanic
Tue 09:57:03 AM 48.8833 -161.8167 84° East 512 589 40,000  Level Oakland Oceanic (ODAPS)
Tue 09:58:00 AM 48.9050 -161.5347 84° East 529 609 40,000  Level FlightAware Transoceanic
Tue 09:59:00 AM 48.9198 -161.3158 84° East 529 609 40,000  Level FlightAware Transoceanic
Tue 10:00:00 AM 48.9342 -161.0968 84° East 529 609 40,000  Level FlightAware Transoceanic
Tue 10:01:00 AM 48.9482 -160.8777 85° East 529 609 40,000  Level FlightAware Transoceanic
Tue 10:02:00 AM 48.9618 -160.6584 85° East 529 609 40,000  Level FlightAware Transoceanic
Tue 10:03:00 AM 48.9735 -160.4550 85° East 512 589 40,000  Level FlightAware Transoceanic
Tue 10:04:00 AM 48.9870 -160.2275 85° East 512 589 40,000  Level FlightAware Transoceanic
Tue 10:05:00 AM 49.0000 -160.0000 95° East 512 589 40,000  Level FlightAware Transoceanic
Tue 10:05:33 AM 49.0000 -160.0000 95° East 519 597 40,000  Level Oakland Oceanic (ODAPS)
Tue 10:06:00 AM 48.9876 -159.7789 95° East 512 589 40,000  Level FlightAware Transoceanic
Tue 10:07:00 AM 48.9747 -159.5580 95° East 512 589 40,000  Level FlightAware Transoceanic
Tue 10:08:00 AM 48.9615 -159.3372 95° East 512 589 40,000  Level FlightAware Transoceanic
Tue 10:09:00 AM 48.9478 -159.1165 95° East 512 589 40,000  Level FlightAware Transoceanic
Tue 10:10:00 AM 48.9337 -158.8959 96° East 512 589 40,000  Level FlightAware Transoceanic
Tue 10:10:56 AM 48.9333 -158.8333 96° East 518 596 40,000  Level Oakland Oceanic (ODAPS)
Tue 10:11:00 AM 48.9192 -158.6755 96° East 512 589 40,000  Level FlightAware Transoceanic
Tue 10:12:00 AM 48.9065 -158.4880 96° East 519 597 40,000  Level FlightAware Transoceanic
Tue 10:13:00 AM 48.8915 -158.2724 96° East 519 597 40,000  Level FlightAware Transoceanic
Tue 10:14:00 AM 48.8761 -158.0570 96° East 519 597 40,000  Level FlightAware Transoceanic
Tue 10:15:00 AM 48.8603 -157.8418 96° East 519 597 40,000  Level FlightAware Transoceanic
Tue 10:16:00 AM 48.8442 -157.6267 97° East 519 597 40,000  Level FlightAware Transoceanic
Tue 10:17:00 AM 48.8393 -157.5219 97° East 518 596 40,000  Level FlightAware Transoceanic
Tue 10:18:00 AM 48.8222 -157.3038 97° East 518 596 40,000  Level FlightAware Transoceanic
Tue 10:19:00 AM 48.8047 -157.0859 97° East 518 596 40,000  Level FlightAware Transoceanic
Tue 10:20:00 AM 48.7868 -156.8682 97° East 518 596 40,000  Level FlightAware Transoceanic
Tue 10:21:00 AM 48.7684 -156.6505 97° East 518 596 40,000  Level FlightAware Transoceanic
Tue 10:22:00 AM 48.7497 -156.4331 98° East 518 596 40,000  Level FlightAware Transoceanic
Tue 10:23:00 AM 48.7305 -156.2158 98° East 518 596 40,000  Level FlightAware Transoceanic
Tue 10:24:00 AM 48.7109 -155.9987 98° East 518 596 40,000  Level FlightAware Transoceanic
Tue 10:24:47 AM 48.7000 -155.9000 98° East 513 590 40,000  Level Oakland Oceanic (ODAPS)
Tue 10:25:00 AM 48.6910 -155.7818 98° East 518 596 40,000  Level FlightAware Transoceanic
Tue 10:26:00 AM 48.6706 -155.5650 98° East 518 596 40,000  Level FlightAware Transoceanic
Tue 10:27:00 AM 48.6498 -155.3484 98° East 518 596 40,000  Level FlightAware Transoceanic
Tue 10:28:00 AM 48.6286 -155.1320 99° East 518 596 40,000  Level FlightAware Transoceanic
Tue 10:29:00 AM 48.6070 -154.9157 99° East 518 596 40,000  Level FlightAware Transoceanic
Tue 10:30:00 AM 48.5850 -154.6997 99° East 518 596 40,000  Level FlightAware Transoceanic
Tue 10:31:00 AM 48.5755 -154.6226 99° East 513 590 40,000  Level FlightAware Transoceanic
Tue 10:32:00 AM 48.5534 -154.4103 99° East 513 590 40,000  Level FlightAware Transoceanic
Tue 10:33:00 AM 48.5309 -154.1982 99° East 513 590 40,000  Level FlightAware Transoceanic
Tue 10:34:00 AM 48.5080 -153.9863 99° East 513 590 40,000  Level FlightAware Transoceanic
Tue 10:35:00 AM 48.4847 -153.7746 100° East 513 590 40,000  Level FlightAware Transoceanic
Tue 10:36:00 AM 48.4611 -153.5631 100° East 513 590 40,000  Level FlightAware Transoceanic
Tue 10:37:00 AM 48.4370 -153.3517 100° East 513 590 40,000  Level FlightAware Transoceanic
Tue 10:38:00 AM 48.4126 -153.1406 100° East 513 590 40,000  Level FlightAware Transoceanic
Tue 10:38:39 AM 48.3833 -152.9500 100° East 520 598 40,000  Level Oakland Oceanic (ODAPS)
Tue 10:39:00 AM 48.3877 -152.9297 100° East 513 590 40,000  Level FlightAware Transoceanic
Tue 10:40:00 AM 48.3625 -152.7190 100° East 513 590 40,000  Level FlightAware Transoceanic
Tue 10:41:00 AM 48.3369 -152.5085 100° East 513 590 40,000  Level FlightAware Transoceanic
Tue 10:42:00 AM 48.3109 -152.2982 101° East 513 590 40,000  Level FlightAware Transoceanic
Tue 10:43:00 AM 48.2846 -152.0882 101° East 513 590 40,000  Level FlightAware Transoceanic
Tue 10:44:00 AM 48.2578 -151.8783 101° East 513 590 40,000  Level FlightAware Transoceanic
Tue 10:45:00 AM 48.2011 -151.4695 101° East 520 598 40,000  Level FlightAware Transoceanic
Tue 10:46:00 AM 48.1735 -151.2589 101° East 520 598 40,000  Level FlightAware Transoceanic
Tue 10:47:00 AM 48.1456 -151.0485 101° East 520 598 40,000  Level FlightAware Transoceanic
Tue 10:48:00 AM 48.1172 -150.8383 102° East 520 598 40,000  Level FlightAware Transoceanic
Tue 10:49:00 AM 48.0885 -150.6284 102° East 520 598 40,000  Level FlightAware Transoceanic
Tue 10:50:00 AM 48.0594 -150.4187 102° East 520 598 40,000  Level FlightAware Transoceanic
Tue 10:51:00 AM 48.0299 -150.2092 102° East 520 598 40,000  Level FlightAware Transoceanic
Tue 10:52:00 AM 48.0000 -150.0000 110° East 520 598 40,000  Level FlightAware Transoceanic
Tue 10:52:28 AM 48.0000 -150.0000 110° East 540 621 40,000  Level Oakland Oceanic (ODAPS)
Tue 10:52:38 AM 48.0000 -149.9833 110° East 546 628 40,000  Level Oakland Oceanic (ODAPS)
Tue 10:53:00 AM 47.9488 -149.7893 110° East 520 598 40,000  Level FlightAware Transoceanic
Tue 10:54:00 AM 47.8973 -149.5791 110° East 520 598 40,000  Level FlightAware Transoceanic
Tue 10:55:00 AM 47.8454 -149.3692 110° East 520 598 40,000  Level FlightAware Transoceanic
Tue 10:56:00 AM 47.7930 -149.1598 110° East 520 598 40,000  Level FlightAware Transoceanic
Tue 10:57:00 AM 47.7404 -148.9508 111° Southeast 520 598 40,000  Level FlightAware Transoceanic
Tue 10:58:00 AM 47.6873 -148.7423 111° Southeast 540 621 40,000  Level FlightAware Transoceanic
Tue 10:59:00 AM 47.6337 -148.5199 111° Southeast 546 628 40,000  Level FlightAware Transoceanic
Tue 11:00:00 AM 47.5798 -148.3125 111° Southeast 546 628 40,000  Level FlightAware Transoceanic
Tue 11:01:00 AM 47.5256 -148.1056 111° Southeast 546 628 40,000  Level FlightAware Transoceanic
Tue 11:02:00 AM 47.4710 -147.8991 111° Southeast 546 628 40,000  Level FlightAware Transoceanic
Tue 11:03:00 AM 47.4160 -147.6930 112° Southeast 546 628 40,000  Level FlightAware Transoceanic
Tue 11:04:00 AM 47.3607 -147.4873 112° Southeast 546 628 40,000  Level FlightAware Transoceanic
Tue 11:05:00 AM 47.3050 -147.2821 112° Southeast 546 628 40,000  Level FlightAware Transoceanic
Tue 11:06:00 AM 47.2490 -147.0773 112° Southeast 546 628 40,000  Level FlightAware Transoceanic
Tue 11:06:23 AM 47.2500 -147.1167 112° Southeast 547 629 40,000  Level Oakland Oceanic (ODAPS)
Tue 11:07:00 AM 47.1926 -146.8730 112° Southeast 546 628 40,000  Level FlightAware Transoceanic
Tue 11:08:00 AM 47.1358 -146.6691 112° Southeast 546 628 40,000  Level FlightAware Transoceanic
Tue 11:09:00 AM 47.0786 -146.4656 112° Southeast 546 628 40,000  Level FlightAware Transoceanic
Tue 11:10:00 AM 47.0211 -146.2625 113° Southeast 546 628 40,000  Level FlightAware Transoceanic
Tue 11:11:00 AM 46.9632 -146.0600 113° Southeast 546 628 40,000  Level FlightAware Transoceanic
Tue 11:12:00 AM 46.9062 -145.8903 113° Southeast 547 629 40,000  Level FlightAware Transoceanic
Tue 11:13:00 AM 46.8477 -145.6875 113° Southeast 547 629 40,000  Level FlightAware Transoceanic
Tue 11:14:00 AM 46.7887 -145.4851 113° Southeast 547 629 40,000  Level FlightAware Transoceanic
Tue 11:15:00 AM 46.7295 -145.2831 113° Southeast 547 629 40,000  Level FlightAware Transoceanic
Tue 11:16:00 AM 46.6698 -145.0816 113° Southeast 547 629 40,000  Level FlightAware Transoceanic
Tue 11:17:00 AM 46.6099 -144.8805 114° Southeast 547 629 40,000  Level FlightAware Transoceanic
Tue 11:18:00 AM 46.5495 -144.6799 114° Southeast 547 629 40,000  Level FlightAware Transoceanic
Tue 11:19:00 AM 46.4888 -144.4797 114° Southeast 547 629 40,000  Level FlightAware Transoceanic
Tue 11:20:00 AM 46.4278 -144.2800 114° Southeast 547 629 40,000  Level FlightAware Transoceanic
Tue 11:20:15 AM 46.4333 -144.3000 114° Southeast 549 632 40,000  Level Oakland Oceanic (ODAPS)
Tue 11:21:00 AM 46.3664 -144.0807 114° Southeast 547 629 40,000  Level FlightAware Transoceanic
Tue 11:22:00 AM 46.3047 -143.8819 114° Southeast 547 629 40,000  Level FlightAware Transoceanic
Tue 11:23:00 AM 46.2426 -143.6835 114° Southeast 547 629 40,000  Level FlightAware Transoceanic
Tue 11:24:00 AM 46.1802 -143.4856 115° Southeast 547 629 40,000  Level FlightAware Transoceanic
Tue 11:25:00 AM 46.1175 -143.2881 115° Southeast 547 629 40,000  Level FlightAware Transoceanic
Tue 11:26:00 AM 46.0586 -143.1054 115° Southeast 549 632 40,000  Level FlightAware Transoceanic
Tue 11:27:00 AM 45.9949 -142.9079 115° Southeast 549 632 40,000  Level FlightAware Transoceanic
Tue 11:28:00 AM 45.9309 -142.7108 115° Southeast 549 632 40,000  Level FlightAware Transoceanic
Tue 11:29:00 AM 45.8665 -142.5142 115° Southeast 549 632 40,000  Level FlightAware Transoceanic
Tue 11:30:00 AM 45.8018 -142.3181 115° Southeast 549 632 40,000  Level FlightAware Transoceanic
Tue 11:31:00 AM 45.7368 -142.1224 116° Southeast 549 632 40,000  Level FlightAware Transoceanic
Tue 11:32:00 AM 45.6715 -141.9272 116° Southeast 549 632 40,000  Level FlightAware Transoceanic
Tue 11:33:00 AM 45.6058 -141.7324 116° Southeast 549 632 40,000  Level FlightAware Transoceanic
Tue 11:34:00 AM 45.5398 -141.5381 116° Southeast 549 632 40,000  Level FlightAware Transoceanic
Tue 11:34:07 AM 45.5500 -141.5667 116° Southeast 547 629 40,000  Level Oakland Oceanic (ODAPS)
Tue 11:35:00 AM 45.4734 -141.3442 116° Southeast 549 632 40,000  Level FlightAware Transoceanic
Tue 11:36:00 AM 45.4068 -141.1508 116° Southeast 549 632 40,000  Level FlightAware Transoceanic
Tue 11:37:00 AM 45.3398 -140.9579 116° Southeast 549 632 40,000  Level FlightAware Transoceanic
Tue 11:38:00 AM 45.2725 -140.7654 117° Southeast 549 632 40,000  Level FlightAware Transoceanic
Tue 11:39:00 AM 45.2048 -140.5733 117° Southeast 549 632 40,000  Level FlightAware Transoceanic
Tue 11:40:00 AM 45.1395 -140.3888 117° Southeast 547 629 40,000  Level FlightAware Transoceanic
Tue 11:41:00 AM 45.0699 -140.1942 117° Southeast 547 629 40,000  Level FlightAware Transoceanic
Tue 11:42:00 AM 45.0000 -140.0000 121° Southeast 547 629 40,000  Level FlightAware Transoceanic
Tue 11:42:11 AM 45.0000 -140.0000 121° Southeast 571 657 40,000  Level Oakland Oceanic (ODAPS)
Tue 11:43:00 AM 44.9188 -139.8070 121° Southeast 547 629 40,000  Level FlightAware Transoceanic
Tue 11:44:00 AM 44.8372 -139.6146 121° Southeast 547 629 40,000  Level FlightAware Transoceanic
Tue 11:45:00 AM 44.7553 -139.4227 121° Southeast 547 629 40,000  Level FlightAware Transoceanic
Tue 11:46:00 AM 44.6731 -139.2314 121° Southeast 547 629 40,000  Level FlightAware Transoceanic
Tue 11:47:00 AM 44.5906 -139.0406 121° Southeast 547 629 40,000  Level FlightAware Transoceanic
Tue 11:47:59 AM 44.5333 -138.9000 121° Southeast 578 665 40,000  Level Oakland Oceanic (ODAPS)
Tue 11:48:00 AM 44.5077 -138.8503 121° Southeast 571 657 40,000  Level FlightAware Transoceanic
Tue 11:49:00 AM 44.4246 -138.6606 122° Southeast 571 657 40,000  Level FlightAware Transoceanic
Tue 11:50:00 AM 44.3411 -138.4714 122° Southeast 571 657 40,000  Level FlightAware Transoceanic
Tue 11:51:00 AM 44.2573 -138.2828 122° Southeast 571 657 40,000  Level FlightAware Transoceanic
Tue 11:52:00 AM 44.1732 -138.0947 122° Southeast 571 657 40,000  Level FlightAware Transoceanic
Tue 11:53:00 AM 44.0888 -137.9071 122° Southeast 571 657 40,000  Level FlightAware Transoceanic
Tue 11:54:00 AM 44.0271 -137.7630 122° Southeast 578 665 40,000  Level FlightAware Transoceanic
Tue 11:55:00 AM 43.9416 -137.5754 122° Southeast 578 665 40,000  Level FlightAware Transoceanic
Tue 11:56:00 AM 43.8559 -137.3884 123° Southeast 578 665 40,000  Level FlightAware Transoceanic
Tue 11:57:00 AM 43.7698 -137.2018 123° Southeast 578 665 40,000  Level FlightAware Transoceanic
Tue 11:58:00 AM 43.6834 -137.0158 123° Southeast 578 665 40,000  Level FlightAware Transoceanic
Tue 11:59:00 AM 43.5967 -136.8304 123° Southeast 578 665 40,000  Level FlightAware Transoceanic
Tue 12:00:00 PM 43.5098 -136.6455 123° Southeast 578 665 40,000  Level FlightAware Transoceanic
Tue 12:01:00 PM 43.4225 -136.4611 123° Southeast 578 665 40,000  Level FlightAware Transoceanic
Tue 12:01:51 PM 43.3333 -136.2833 123° Southeast 590 679 40,000  Level Oakland Oceanic (ODAPS)
Tue 12:02:00 PM 43.3349 -136.2773 123° Southeast 578 665 40,000  Level FlightAware Transoceanic
Tue 12:03:00 PM 43.2471 -136.0939 123° Southeast 578 665 40,000  Level FlightAware Transoceanic
Tue 12:04:00 PM 43.1589 -135.9111 124° Southeast 578 665 40,000  Level FlightAware Transoceanic
Tue 12:05:00 PM 43.0704 -135.7289 124° Southeast 578 665 40,000  Level FlightAware Transoceanic
Tue 12:06:00 PM 42.9817 -135.5471 124° Southeast 578 665 40,000  Level FlightAware Transoceanic
Tue 12:07:00 PM 42.8927 -135.3659 124° Southeast 578 665 40,000  Level FlightAware Transoceanic
Tue 12:08:00 PM 42.7868 -135.1593 124° Southeast 590 679 40,000  Level FlightAware Transoceanic
Tue 12:09:00 PM 42.6946 -134.9740 124° Southeast 590 679 40,000  Level FlightAware Transoceanic
Tue 12:10:00 PM 42.6022 -134.7891 124° Southeast 590 679 40,000  Level FlightAware Transoceanic
Tue 12:11:00 PM 42.5095 -134.6048 124° Southeast 590 679 40,000  Level FlightAware Transoceanic
Tue 12:12:00 PM 42.4164 -134.4211 125° Southeast 590 679 40,000  Level FlightAware Transoceanic
Tue 12:13:00 PM 42.3231 -134.2379 125° Southeast 590 679 40,000  Level FlightAware Transoceanic
Tue 12:14:00 PM 42.2295 -134.0552 125° Southeast 590 679 40,000  Level FlightAware Transoceanic
Tue 12:15:00 PM 42.1356 -133.8731 125° Southeast 590 679 40,000  Level FlightAware Transoceanic
Tue 12:15:43 PM 42.0667 -133.7500 125° Southeast 579 666 40,000  Level Oakland Oceanic (ODAPS)
Tue 12:16:00 PM 42.0414 -133.6915 125° Southeast 590 679 40,000  Level FlightAware Transoceanic
Tue 12:17:00 PM 41.9469 -133.5105 125° Southeast 590 679 40,000  Level FlightAware Transoceanic
Tue 12:18:00 PM 41.8521 -133.3300 125° Southeast 590 679 40,000  Level FlightAware Transoceanic
Tue 12:19:00 PM 41.7571 -133.1500 125° Southeast 590 679 40,000  Level FlightAware Transoceanic
Tue 12:20:00 PM 41.6617 -132.9706 125° Southeast 590 679 40,000  Level FlightAware Transoceanic
Tue 12:21:00 PM 41.5858 -132.8356 126° Southeast 579 666 40,000  Level FlightAware Transoceanic
Tue 12:22:00 PM 41.4887 -132.6544 126° Southeast 579 666 40,000  Level FlightAware Transoceanic
Tue 12:23:00 PM 41.3914 -132.4737 126° Southeast 579 666 40,000  Level FlightAware Transoceanic
Tue 12:24:00 PM 41.2938 -132.2936 126° Southeast 579 666 40,000  Level FlightAware Transoceanic
Tue 12:25:00 PM 41.1959 -132.1140 126° Southeast 579 666 40,000  Level FlightAware Transoceanic
Tue 12:26:00 PM 41.0977 -131.9349 126° Southeast 579 666 40,000  Level FlightAware Transoceanic
Tue 12:27:00 PM 40.9993 -131.7564 126° Southeast 579 666 40,000  Level FlightAware Transoceanic
Tue 12:28:00 PM 40.9006 -131.5784 126° Southeast 579 666 40,000  Level FlightAware Transoceanic
Tue 12:29:00 PM 40.8016 -131.4009 126° Southeast 579 666 40,000  Level FlightAware Transoceanic
Tue 12:29:35 PM 40.7833 -131.3667 127° Southeast 567 652 40,000  Level Oakland Oceanic (ODAPS)
Tue 12:30:00 PM 40.7023 -131.2239 127° Southeast 579 666 40,000  Level FlightAware Transoceanic
Tue 12:31:00 PM 40.6028 -131.0475 127° Southeast 579 666 40,000  Level FlightAware Transoceanic
Tue 12:32:00 PM 40.5030 -130.8716 127° Southeast 579 666 40,000  Level FlightAware Transoceanic
Tue 12:33:00 PM 40.4029 -130.6963 127° Southeast 579 666 40,000  Level FlightAware Transoceanic
Tue 12:34:00 PM 40.3026 -130.5214 127° Southeast 579 666 40,000  Level FlightAware Transoceanic
Tue 12:35:00 PM 40.2629 -130.4520 127° Southeast 567 652 40,000  Level FlightAware Transoceanic
Tue 12:36:00 PM 40.1755 -130.3010 127° Southeast 567 652 40,000  Level FlightAware Transoceanic
Tue 12:37:00 PM 40.0878 -130.1503 127° Southeast 567 652 40,000  Level FlightAware Transoceanic
Tue 12:38:00 PM 40.0000 -130.0000 122° Southeast 567 652 40,000  Level FlightAware Transoceanic
Tue 12:38:00 PM 40.0000 -130.0000 122° Southeast 567 652 40,000  Level Oakland Oceanic (ODAPS)
Tue 12:39:00 PM 39.9169 -129.8299 123° Southeast 567 652 40,000  Level FlightAware Transoceanic
Tue 12:40:00 PM 39.8335 -129.6602 123° Southeast 567 652 40,000  Level FlightAware Transoceanic
Tue 12:41:00 PM 39.7499 -129.4908 123° Southeast 567 652 40,000  Level FlightAware Transoceanic
Tue 12:42:00 PM 39.6660 -129.3219 123° Southeast 567 652 40,000  Level FlightAware Transoceanic
Tue 12:43:00 PM 39.5818 -129.1535 123° Southeast 567 652 40,000  Level FlightAware Transoceanic
Tue 12:43:22 PM 39.5333 -129.0667 123° Southeast 570 656 40,000  Level Oakland Oceanic (ODAPS)
Tue 12:44:00 PM 39.4975 -128.9854 123° Southeast 567 652 40,000  Level FlightAware Transoceanic
Tue 12:45:00 PM 39.4129 -128.8177 123° Southeast 567 652 40,000  Level FlightAware Transoceanic
Tue 12:46:00 PM 39.3280 -128.6505 123° Southeast 567 652 40,000  Level FlightAware Transoceanic
Tue 12:47:00 PM 39.2430 -128.4836 123° Southeast 567 652 40,000  Level FlightAware Transoceanic
Tue 12:48:00 PM 39.1576 -128.3172 124° Southeast 567 652 40,000  Level FlightAware Transoceanic
Tue 12:49:00 PM 39.0046 -128.0255 124° Southeast 570 656 40,000  Level FlightAware Transoceanic
Tue 12:50:00 PM 38.9155 -127.8535 124° Southeast 570 656 40,000  Level FlightAware Transoceanic
Tue 12:51:00 PM 38.8263 -127.6820 124° Southeast 570 656 40,000  Level FlightAware Transoceanic
Tue 12:52:00 PM 38.7367 -127.5108 124° Southeast 570 656 40,000  Level FlightAware Transoceanic
Tue 12:53:00 PM 38.6470 -127.3401 124° Southeast 570 656 40,000  Level FlightAware Transoceanic
Tue 12:53:09 PM 38.6883 -127.4144 111° Southeast 557 641 40,000  Level Oakland Center
Tue 12:54:00 PM 38.5569 -127.1699 124° Southeast 570 656 40,000  Level FlightAware Transoceanic
Tue 12:54:10 PM 38.6019 -127.2525 124° Southeast 553 636 40,000  Level Oakland Center
Tue 12:55:00 PM 38.4667 -127.0000 111° Southeast 570 656 40,000  Level FlightAware Transoceanic
Tue 12:56:00 PM 38.4158 -126.8324 111° Southeast 570 656 40,000  Level FlightAware Transoceanic
Tue 12:57:00 PM 38.3646 -126.6650 111° Southeast 570 656 40,000  Level FlightAware Transoceanic
Tue 12:58:00 PM 38.3132 -126.4979 111° Southeast 570 656 40,000  Level FlightAware Transoceanic
Tue 12:59:55 PM 38.1840 -126.2200 124° Southeast 574 661 40,000  Level FlightAware ADS-B
Tue 01:00:30 PM 38.1430 -126.1100 115° Southeast 577 664 40,000  Level FlightAware ADS-B
Tue 01:01:06 PM 38.1030 -126.0010 115° Southeast 573 659 40,000  Level FlightAware ADS-B
Tue 01:01:38 PM 38.0670 -125.9040 115° Southeast 574 661 40,000  Level FlightAware ADS-B
Tue 01:02:16 PM 38.0240 -125.7870 115° Southeast 574 661 40,000  Level FlightAware ADS-B
Tue 01:02:53 PM 37.9820 -125.6740 115° Southeast 573 659 40,000  Level FlightAware ADS-B
Tue 01:03:25 PM 37.9450 -125.5770 116° Southeast 575 662 40,000  Level FlightAware ADS-B
Tue 01:04:01 PM 37.9050 -125.4700 115° Southeast 575 662 40,000  Level FlightAware ADS-B
Tue 01:04:36 PM 37.8660 -125.3660 115° Southeast 577 664 40,000  Level FlightAware ADS-B
Tue 01:05:15 PM 37.8250 -125.2570 115° Southeast 577 664 40,000  Level FlightAware ADS-B
Tue 01:05:51 PM 37.7900 -125.1630 115° Southeast 577 664 40,000  Level FlightAware ADS-B
Tue 01:06:27 PM 37.7560 -125.0690 115° Southeast 577 664 40,000  Level FlightAware ADS-B
Tue 01:07:01 PM 37.6980 -124.9260 117° Southeast 568 654 40,000  Level FlightAware ADS-B
Tue 01:07:37 PM 37.6570 -124.8200 116° Southeast 568 654 40,000  Level FlightAware ADS-B
Tue 01:08:14 PM 37.6180 -124.7170 116° Southeast 568 654 40,000  Level FlightAware ADS-B
Tue 01:08:50 PM 37.5740 -124.6030 116° Southeast 571 657 40,000  Level FlightAware ADS-B
Tue 01:09:22 PM 37.5360 -124.5050 116° Southeast 569 655 40,000  Level FlightAware ADS-B
Tue 01:09:58 PM 37.4950 -124.4000 116° Southeast 568 654 40,000  Level FlightAware ADS-B
Tue 01:10:35 PM 37.4520 -124.2910 116° Southeast 567 652 40,000 593 Level FlightAware ADS-B
Tue 01:11:29 PM 37.3900 -124.1310 116° Southeast 563 648 40,900 645 Climbing FlightAware ADS-B
Tue 01:12:08 PM 37.3510 -124.0310 116° Southeast 563 648 41,000 76 Climbing FlightAware ADS-B
Tue 01:12:48 PM 37.3050 -123.9160 117° Southeast 559 643 41,000  Level FlightAware ADS-B
Tue 01:13:22 PM 37.2730 -123.8310 115° Southeast 559 643 41,000  Level FlightAware ADS-B
Tue 01:13:58 PM 37.2380 -123.7420 116° Southeast 559 643 41,000  Level FlightAware ADS-B
Tue 01:14:34 PM 37.2030 -123.6530 116° Southeast 559 643 41,000  Level FlightAware ADS-B
Tue 01:15:11 PM 37.1680 -123.5610 115° Southeast 559 643 41,000  Level FlightAware ADS-B
Tue 01:15:50 PM 37.0880 -123.3730 118° Southeast 561 646 41,000  Level FlightAware ADS-B
Tue 01:16:26 PM 37.0480 -123.2730 117° Southeast 559 643 41,000  Level FlightAware ADS-B
Tue 01:16:58 PM 37.0090 -123.1770 117° Southeast 558 642 41,000  Level FlightAware ADS-B
Tue 01:17:32 PM 36.9700 -123.0810 117° Southeast 556 640 41,000  Level FlightAware ADS-B
Tue 01:18:07 PM 36.9320 -122.9860 117° Southeast 555 639 41,000  Level FlightAware ADS-B
Tue 01:18:46 PM 36.8840 -122.8700 117° Southeast 552 635 41,000  Level FlightAware ADS-B
Tue 01:19:18 PM 36.8470 -122.7790 117° Southeast 552 635 41,000  Level FlightAware ADS-B
Tue 01:19:54 PM 36.8060 -122.6800 117° Southeast 551 634 41,000  Level FlightAware ADS-B
Tue 01:20:30 PM 36.7620 -122.5830 119° Southeast 548 631 41,000  Level FlightAware ADS-B
Tue 01:21:02 PM 36.7170 -122.4900 121° Southeast 548 631 41,000  Level FlightAware ADS-B
Tue 01:21:38 PM 36.6700 -122.3940 121° Southeast 548 631 41,000  Level FlightAware ADS-B
Tue 01:21:55 PM 36.6463 -122.3470 122° Southeast 547 629 41,000  Level FlightAware ADS-B
Tue 01:22:26 PM 36.6049 -122.2630 122° Southeast 544 626 41,000  Level FlightAware ADS-B
Tue 01:23:02 PM 36.5579 -122.1680 122° Southeast 542 624 41,000  Level FlightAware ADS-B
Tue 01:23:36 PM 36.5143 -122.0800 122° Southeast 541 623 41,000  Level FlightAware ADS-B
Tue 01:24:36 PM 36.4350 -121.9220 122° Southeast 538 619 41,000  Level FlightAware ADS-B
Tue 01:25:08 PM 36.3940 -121.8400 122° Southeast 538 619 41,000  Level FlightAware ADS-B
Tue 01:25:47 PM 36.3418 -121.7360 122° Southeast 540 621 41,000  Level FlightAware ADS-B
Tue 01:26:20 PM 36.2983 -121.6490 122° Southeast 540 621 41,000  Level FlightAware ADS-B
Tue 01:26:54 PM 36.2540 -121.5620 122° Southeast 540 621 41,000  Level FlightAware ADS-B
Tue 01:27:35 PM 36.1982 -121.4510 122° Southeast 541 623 41,000  Level FlightAware ADS-B
Tue 01:28:07 PM 36.1573 -121.3710 122° Southeast 537 618 41,000  Level FlightAware ADS-B
Tue 01:29:19 PM 36.0622 -121.1840 122° Southeast 536 617 41,000  Level FlightAware ADS-B
Tue 01:29:52 PM 36.0177 -121.0970 122° Southeast 536 617 41,000  Level FlightAware ADS-B
Tue 01:30:25 PM 35.9750 -121.0140 122° Southeast 536 617 41,000  Level FlightAware ADS-B
Tue 01:30:56 PM 35.9340 -120.9340 122° Southeast 536 617 41,000  Level FlightAware ADS-B
Tue 01:31:32 PM 35.8850 -120.8400 123° Southeast 536 617 41,000  Level FlightAware ADS-B
Tue 01:32:08 PM 35.8380 -120.7490 122° Southeast 537 618 41,000  Level FlightAware ADS-B
Tue 01:32:45 PM 35.7890 -120.6530 122° Southeast 537 618 41,000  Level FlightAware ADS-B
Tue 01:33:20 PM 35.7420 -120.5640 123° Southeast 535 616 41,000  Level FlightAware ADS-B
Tue 01:33:52 PM 35.7000 -120.4820 122° Southeast 536 617 41,000  Level FlightAware ADS-B
Tue 01:34:28 PM 35.6530 -120.3930 123° Southeast 537 618 41,000  Level FlightAware ADS-B
Tue 01:35:06 PM 35.6000 -120.2920 123° Southeast 536 617 41,000 -333 Level FlightAware ADS-B
Tue 01:35:40 PM 35.5500 -120.2120 128° Southeast 524 603 40,600 -1,111 Descending FlightAware ADS-B
Tue 01:36:00 PM 35.5147 -120.1680 135° Southeast 518 596 40,000 -1,714 Descending FlightAware ADS-B
Tue 01:36:36 PM 35.4508 -120.0960 137° Southeast 517 595 39,000 -1,643 Descending FlightAware ADS-B
Tue 01:37:24 PM 35.3660 -120.0010 138° Southeast 525 604 37,700 -1,429 Descending FlightAware ADS-B
Tue 01:38:00 PM 35.3030 -119.9290 137° Southeast 517 595 37,000 -2,261 Descending FlightAware ADS-B
Tue 01:38:33 PM 35.2425 -119.8610 137° Southeast 527 606 35,100 -3,474 Descending FlightAware ADS-B
Tue 01:39:16 PM 35.1760 -119.7870 138° Southeast 545 627 32,600 -3,325 Descending FlightAware ADS-B
Tue 01:39:56 PM 35.0920 -119.6920 137° Southeast 532 612 30,500 -2,400 Descending FlightAware ADS-B
Tue 01:40:31 PM 35.0310 -119.6240 138° Southeast 509 586 29,600 -2,486 Descending FlightAware ADS-B
Tue 01:41:06 PM 34.9700 -119.5560 138° Southeast 502 578 27,600 -2,571 Descending FlightAware ADS-B
Tue 01:41:41 PM 34.9180 -119.4990 138° Southeast 490 564 26,600 -1,629 Descending FlightAware ADS-B
Tue 01:42:16 PM 34.8570 -119.4300 137° Southeast 482 555 25,700 -1,629 Descending FlightAware ADS-B
Tue 01:42:51 PM 34.7950 -119.3630 138° Southeast 475 547 24,700 -1,714 Descending FlightAware ADS-B
Tue 01:43:26 PM 34.7410 -119.3030 138° Southeast 459 528 23,700 -1,886 Descending FlightAware ADS-B
Tue 01:44:01 PM 34.6850 -119.2410 138° Southeast 453 521 22,500 -2,143 Descending FlightAware ADS-B
Tue 01:44:36 PM 34.6310 -119.1810 138° Southeast 438 504 21,200 -2,229 Descending FlightAware ADS-B
Tue 01:45:11 PM 34.5790 -119.1240 138° Southeast 436 502 19,900 -1,029 Descending FlightAware ADS-B
Tue 01:45:46 PM 34.5240 -119.0640 138° Southeast 437 503 20,000 -686 Climbing FlightAware ADS-B
Tue 01:46:21 PM 34.4730 -119.0080 138° Southeast 437 503 19,100 -2,143 Descending FlightAware ADS-B
Tue 01:46:56 PM 34.4190 -118.9500 138° Southeast 425 489 17,500 -2,314 Descending FlightAware ADS-B
Tue 01:47:31 PM 34.3640 -118.9070 147° Southeast 404 465 16,400 -3,086 Descending FlightAware ADS-B
Tue 01:48:06 PM 34.3030 -118.8760 157° South 398 458 13,900 -3,465 Descending FlightAware ADS-B
Tue 01:48:42 PM 34.2410 -118.8470 159° South 398 458 12,300 -1,629 Descending FlightAware ADS-B
Tue 01:49:16 PM 34.1840 -118.8200 159° South 360 414 12,000 -870 Descending FlightAware ADS-B
Tue 01:49:51 PM 34.1290 -118.7970 161° South 367 422 11,300 -1,200 Descending FlightAware ADS-B
Tue 01:50:26 PM 34.0720 -118.7760 163° South 347 399 10,600 -1,067 Descending FlightAware ADS-B
Tue 01:50:36 PM 34.0580 -118.7660 149° Southeast 355 409 10,500 -600 Descending FlightAware ADS-B
Tue 01:50:46 PM 34.0470 -118.7520 133° Southeast 354 407 10,400 -600 Descending FlightAware ADS-B
Tue 01:50:56 PM 34.0380 -118.7340 121° Southeast 352 405 10,300 -600 Descending FlightAware ADS-B
Tue 01:51:06 PM 34.0330 -118.7140 107° East 349 402 10,200 -450 Descending FlightAware ADS-B
Tue 01:51:36 PM 34.0280 -118.6610 96° East 325 374 10,000 -545 Descending FlightAware ADS-B
Tue 01:52:01 PM 34.0250 -118.6160 95° East 298 343 9,700 -1,333 Descending FlightAware ADS-B
Tue 01:52:21 PM 34.0230 -118.5850 94° East 296 341 9,000 -2,200 Descending FlightAware ADS-B
Tue 01:52:31 PM 34.0210 -118.5670 98° East 297 342 8,600 -2,200 Descending FlightAware ADS-B
Tue 01:52:51 PM 34.0180 -118.5340 96° East 297 342 7,900 -1,714 Descending FlightAware ADS-B
Tue 01:53:06 PM 34.0160 -118.5090 96° East 297 342 7,600 -1,200 Descending FlightAware ADS-B
Tue 01:53:26 PM 34.0120 -118.4760 98° East 292 336 7,200 -692 Descending FlightAware ADS-B
Tue 01:53:58 PM 34.0140 -118.4240 87° East 290 334 7,000 -692 Descending FlightAware ADS-B
Tue 01:54:18 PM 34.0180 -118.3930 81° East 289 333 6,600 -1,227 Descending FlightAware ADS-B
Tue 01:54:42 PM 34.0220 -118.3530 83° East 289 333 6,100 -1,256 Descending FlightAware ADS-B
Tue 01:55:01 PM 34.0250 -118.3230 83° East 288 331 5,700 -1,263 Descending FlightAware ADS-B
Tue 01:55:20 PM 34.0280 -118.2920 83° East 287 330 5,300 -1,171 Descending FlightAware ADS-B
Tue 01:55:42 PM 34.0300 -118.2590 86° East 269 310 4,900 -1,067 Descending FlightAware ADS-B
Tue 01:56:05 PM 34.0240 -118.2290 104° East 247 284 4,500 -1,071 Descending FlightAware ADS-B
Tue 01:56:10 PM 34.0200 -118.2230 129° Southeast 241 277 4,400 -667 Descending FlightAware ADS-B
Tue 01:56:14 PM 34.0160 -118.2190 140° Southeast 235 270 4,400 -1,200 Level FlightAware ADS-B
Tue 01:56:25 PM 34.0060 -118.2140 157° South 222 255 4,100 -1,500 Descending FlightAware ADS-B
Tue 01:56:38 PM 33.9930 -118.2100 166° South 211 243 3,800 -1,273 Descending FlightAware ADS-B
Tue 01:56:58 PM 33.9750 -118.2070 172° South 198 228 3,400 -1,091 Descending FlightAware ADS-B
Tue 01:57:22 PM 33.9560 -118.2160 201° Southwest 182 209 3,000 -1,071 Descending FlightAware ADS-B
Tue 01:57:26 PM 33.9540 -118.2200 239° Southwest 177 204 2,900  Descending FlightAware ADS-B
Tue 01:57:35 PM 33.9530 -118.2280 261° West 163 188 3,000 -414 Climbing FlightAware ADS-B
Tue 01:57:55 PM 33.9510 -118.2440 261° West 155 178 2,700 -1,149 Descending FlightAware ADS-B
Tue 01:58:22 PM 33.9490 -118.2680 264° West 158 182 2,100 -1,171 Descending FlightAware ADS-B
Tue 01:58:36 PM 33.9480 -118.2780 263° West 155 178 1,900 -1,059 Descending FlightAware ADS-B
Tue 01:58:56 PM 33.9460 -118.2970 263° West 146 168 1,500 -1,050 Descending FlightAware ADS-B
Tue 01:59:16 PM 33.9450 -118.3120 265° West 146 168 1,200 -750 Descending FlightAware ADS-B
Tue 01:59:36 PM 33.9430 -118.3270 261° West 139 160 1,000 -250 Descending FlightAware ADS-B
Tue 02:00:04 PM 33.9410 -118.3460 263° West 139 160 1,000 -429 Level FlightAware ADS-B
Tue 02:00:32 PM 33.9390 -118.3680 264° West 138 159 600 -750 Descending FlightAware ADS-B
Tue 02:01:16 PM 33.9361 -118.3958 264° West 138 159 100 -682 Descending Los Angeles Center

Login

Don't have an account? Register now (free) for customized features, flight alerts, and more!